Pagrindinis puslapis
METAR-TAF:

METAR-TAF

Oro uostai :

Matsumoto, Japonija

platuma: 36-10N, ilguma: 137-56E, Aukštis: 668 m

Dabartinis oras

Ataskaita buvo paskelbta 17 minutes, ne 04:00 UTC
Vėjas 4 kt iš Šiaurės, svyruoja nuo Šiaurės Vakarų ir Šiaurės Rytų
Temperatūra 6°C
Drėgmė 42%
Slėgis 1025 hPa
Matomumas 10 km arba daugiau
Mažai debesys ne aukštis 5000 ft
Išsisklaidę debesys ne aukštis 12000 ft
Su prošvaistėmis

METAR: RJAF 200400Z 36004KT 320V050 9999 FEW050 SCT120 BKN/// 06/M06 Q1025

Laikas: 13:17 (04:17 UTC)


TAF: trūkstamas

Orai ataskaitas ir orų prognozės (METAR, TAF).

turimą stotys yra geltonos ir raudonos taškus žemėlapyje.

Perkelti pele per norėdami pamatyti stoties vardą.

Tada spustelėkite, norėdami matyti oro stebėjimo ir prognozės.

Norėdami pakeisti žemėlapį: spustelėkite ant žalios mygtukų su juodo kryžiaus žemyn,; žalią mygtuką su brūkšneliu, jei norite nutolinti; arba žalių rodyklių gretimoms žemėlapius.


METAR-TAF: